Pickaway, West Virginia
Current Conditions -  °F | °C
As of 9:15 AM on Friday 19 Dec 2014 (Local Time) from KLWB Reporting Station
Clear Clear  
Wind Chill: 23°   Ceiling: Unl
Heat Index: 28°   Visibility: 10mi
Dew Point: 21°   Wind: 5mph
Humidity: 75%   Direction: 280°W
Pressure: 30.15"   Gusts: NA
Location:  37.669°N, 80.524°W
Report Text: KLWB 191415Z AUTO 28004KT 10SM CLR M02/M06 A3015 RMK AO2 T10201059
Loading
Personal Weather Stations






























Interactive Weather Map New forecast layout! Learn more

10-Day Weather Forecast

Advertisements
Track Severe Weather on mobile